sensor_id;sensor_type;location;lat;lon;timestamp;P1;durP1;ratioP1;P2;durP2;ratioP2
44850;SDS011;30583;48.714;9.386;2023-07-08T00:00:42;11.13;;;5.82;;
44850;SDS011;30583;48.714;9.386;2023-07-08T00:03:10;9.85;;;6.15;;
44850;SDS011;30583;48.714;9.386;2023-07-08T00:05:35;8.80;;;5.80;;
44850;SDS011;30583;48.714;9.386;2023-07-08T00:08:01;11.65;;;6.50;;
44850;SDS011;30583;48.714;9.386;2023-07-08T00:10:27;10.15;;;6.38;;
44850;SDS011;30583;48.714;9.386;2023-07-08T00:12:55;9.43;;;6.45;;
44850;SDS011;30583;48.714;9.386;2023-07-08T00:15:30;9.95;;;6.20;;
44850;SDS011;30583;48.714;9.386;2023-07-08T00:17:57;8.20;;;6.22;;
44850;SDS011;30583;48.714;9.386;2023-07-08T00:20:31;11.05;;;6.75;;
44850;SDS011;30583;48.714;9.386;2023-07-08T00:23:02;9.95;;;6.47;;
44850;SDS011;30583;48.714;9.386;2023-07-08T00:25:28;12.00;;;5.85;;
44850;SDS011;30583;48.714;9.386;2023-07-08T00:27:54;12.73;;;6.10;;
44850;SDS011;30583;48.714;9.386;2023-07-08T00:30:24;10.95;;;6.00;;
44850;SDS011;30583;48.714;9.386;2023-07-08T00:32:51;10.02;;;5.78;;
44850;SDS011;30583;48.714;9.386;2023-07-08T00:35:21;10.32;;;6.60;;
44850;SDS011;30583;48.714;9.386;2023-07-08T00:37:58;9.07;;;6.15;;
44850;SDS011;30583;48.714;9.386;2023-07-08T00:40:28;12.18;;;6.10;;
44850;SDS011;30583;48.714;9.386;2023-07-08T00:42:55;9.27;;;5.88;;
44850;SDS011;30583;48.714;9.386;2023-07-08T00:45:31;12.35;;;6.65;;
44850;SDS011;30583;48.714;9.386;2023-07-08T00:48:12;9.02;;;6.07;;
44850;SDS011;30583;48.714;9.386;2023-07-08T00:50:50;11.13;;;6.53;;
44850;SDS011;30583;48.714;9.386;2023-07-08T00:53:35;9.77;;;5.65;;
44850;SDS011;30583;48.714;9.386;2023-07-08T00:56:12;9.27;;;6.03;;
44850;SDS011;30583;48.714;9.386;2023-07-08T00:58:49;9.40;;;6.57;;
44850;SDS011;30583;48.714;9.386;2023-07-08T01:01:19;10.02;;;5.78;;
44850;SDS011;30583;48.714;9.386;2023-07-08T01:03:49;9.93;;;5.93;;
44850;SDS011;30583;48.714;9.386;2023-07-08T01:06:18;9.02;;;6.22;;
44850;SDS011;30583;48.714;9.386;2023-07-08T01:08:46;10.50;;;5.93;;
44850;SDS011;30583;48.714;9.386;2023-07-08T01:11:15;11.55;;;6.22;;
44850;SDS011;30583;48.714;9.386;2023-07-08T01:13:41;9.32;;;6.18;;
44850;SDS011;30583;48.714;9.386;2023-07-08T01:16:09;7.47;;;5.70;;
44850;SDS011;30583;48.714;9.386;2023-07-08T01:18:36;10.32;;;6.30;;
44850;SDS011;30583;48.714;9.386;2023-07-08T01:21:06;10.10;;;5.65;;
44850;SDS011;30583;48.714;9.386;2023-07-08T01:23:59;11.93;;;5.97;;
44850;SDS011;30583;48.714;9.386;2023-07-08T01:26:26;10.10;;;6.55;;
44850;SDS011;30583;48.714;9.386;2023-07-08T01:28:54;11.30;;;6.25;;
44850;SDS011;30583;48.714;9.386;2023-07-08T01:31:21;9.07;;;5.90;;
44850;SDS011;30583;48.714;9.386;2023-07-08T01:33:47;8.85;;;6.03;;
44850;SDS011;30583;48.714;9.386;2023-07-08T01:36:13;8.70;;;5.95;;
44850;SDS011;30583;48.714;9.386;2023-07-08T01:38:39;10.43;;;5.88;;
44850;SDS011;30583;48.714;9.386;2023-07-08T01:41:05;10.60;;;5.68;;
44850;SDS011;30583;48.714;9.386;2023-07-08T01:43:37;9.68;;;6.20;;
44850;SDS011;30583;48.714;9.386;2023-07-08T01:46:02;10.10;;;6.03;;
44850;SDS011;30583;48.714;9.386;2023-07-08T01:48:31;8.23;;;5.80;;
44850;SDS011;30583;48.714;9.386;2023-07-08T01:51:03;9.52;;;5.93;;
44850;SDS011;30583;48.714;9.386;2023-07-08T01:53:33;9.82;;;5.85;;
44850;SDS011;30583;48.714;9.386;2023-07-08T01:56:05;8.60;;;6.13;;
44850;SDS011;30583;48.714;9.386;2023-07-08T01:58:31;9.38;;;6.10;;
44850;SDS011;30583;48.714;9.386;2023-07-08T02:00:56;11.30;;;6.00;;
44850;SDS011;30583;48.714;9.386;2023-07-08T02:03:22;8.80;;;6.05;;
44850;SDS011;30583;48.714;9.386;2023-07-08T02:05:48;10.30;;;5.57;;
44850;SDS011;30583;48.714;9.386;2023-07-08T02:08:14;8.73;;;5.75;;
44850;SDS011;30583;48.714;9.386;2023-07-08T02:10:41;10.38;;;6.38;;
44850;SDS011;30583;48.714;9.386;2023-07-08T02:13:07;9.93;;;6.70;;
44850;SDS011;30583;48.714;9.386;2023-07-08T02:15:33;8.63;;;6.20;;
44850;SDS011;30583;48.714;9.386;2023-07-08T02:17:59;10.60;;;6.47;;
44850;SDS011;30583;48.714;9.386;2023-07-08T02:20:24;9.60;;;6.85;;
44850;SDS011;30583;48.714;9.386;2023-07-08T02:22:50;11.02;;;6.22;;
44850;SDS011;30583;48.714;9.386;2023-07-08T02:25:16;9.23;;;5.88;;
44850;SDS011;30583;48.714;9.386;2023-07-08T02:27:41;9.27;;;5.88;;
44850;SDS011;30583;48.714;9.386;2023-07-08T02:30:07;9.80;;;5.80;;
44850;SDS011;30583;48.714;9.386;2023-07-08T02:32:34;8.98;;;5.50;;
44850;SDS011;30583;48.714;9.386;2023-07-08T02:35:00;11.90;;;6.28;;
44850;SDS011;30583;48.714;9.386;2023-07-08T02:37:30;10.32;;;6.13;;
44850;SDS011;30583;48.714;9.386;2023-07-08T02:39:55;12.43;;;7.40;;
44850;SDS011;30583;48.714;9.386;2023-07-08T02:42:21;10.65;;;6.55;;
44850;SDS011;30583;48.714;9.386;2023-07-08T02:44:47;10.93;;;6.90;;
44850;SDS011;30583;48.714;9.386;2023-07-08T02:47:12;11.23;;;7.22;;
44850;SDS011;30583;48.714;9.386;2023-07-08T02:49:38;12.40;;;6.68;;
44850;SDS011;30583;48.714;9.386;2023-07-08T02:52:04;9.98;;;6.68;;
44850;SDS011;30583;48.714;9.386;2023-07-08T02:54:29;13.50;;;6.70;;
44850;SDS011;30583;48.714;9.386;2023-07-08T02:56:55;10.48;;;6.75;;
44850;SDS011;30583;48.714;9.386;2023-07-08T02:59:20;10.40;;;6.45;;
44850;SDS011;30583;48.714;9.386;2023-07-08T03:01:46;12.15;;;7.30;;
44850;SDS011;30583;48.714;9.386;2023-07-08T03:04:12;13.60;;;7.00;;
44850;SDS011;30583;48.714;9.386;2023-07-08T03:06:39;11.25;;;7.95;;
44850;SDS011;30583;48.714;9.386;2023-07-08T03:09:06;11.75;;;7.32;;
44850;SDS011;30583;48.714;9.386;2023-07-08T03:11:32;11.27;;;7.03;;
44850;SDS011;30583;48.714;9.386;2023-07-08T03:13:57;9.98;;;6.53;;
44850;SDS011;30583;48.714;9.386;2023-07-08T03:16:23;10.98;;;6.95;;
44850;SDS011;30583;48.714;9.386;2023-07-08T03:18:48;11.45;;;7.10;;
44850;SDS011;30583;48.714;9.386;2023-07-08T03:21:15;11.20;;;7.15;;
44850;SDS011;30583;48.714;9.386;2023-07-08T03:23:42;11.52;;;7.40;;
44850;SDS011;30583;48.714;9.386;2023-07-08T03:26:12;11.07;;;6.93;;
44850;SDS011;30583;48.714;9.386;2023-07-08T03:28:43;11.38;;;7.55;;
44850;SDS011;30583;48.714;9.386;2023-07-08T03:31:09;12.20;;;7.13;;
44850;SDS011;30583;48.714;9.386;2023-07-08T03:33:35;14.85;;;6.95;;
44850;SDS011;30583;48.714;9.386;2023-07-08T03:36:02;10.38;;;6.85;;
44850;SDS011;30583;48.714;9.386;2023-07-08T03:38:28;10.30;;;6.88;;
44850;SDS011;30583;48.714;9.386;2023-07-08T03:40:54;10.90;;;6.55;;
44850;SDS011;30583;48.714;9.386;2023-07-08T03:43:19;12.00;;;6.63;;
44850;SDS011;30583;48.714;9.386;2023-07-08T03:45:46;14.15;;;7.05;;
44850;SDS011;30583;48.714;9.386;2023-07-08T03:48:12;12.43;;;6.90;;
44850;SDS011;30583;48.714;9.386;2023-07-08T03:50:38;12.55;;;7.05;;
44850;SDS011;30583;48.714;9.386;2023-07-08T03:53:04;11.15;;;6.88;;
44850;SDS011;30583;48.714;9.386;2023-07-08T03:55:30;10.98;;;6.78;;
44850;SDS011;30583;48.714;9.386;2023-07-08T03:57:55;10.90;;;6.53;;
44850;SDS011;30583;48.714;9.386;2023-07-08T04:00:21;13.05;;;7.00;;
44850;SDS011;30583;48.714;9.386;2023-07-08T04:02:47;12.40;;;7.18;;
44850;SDS011;30583;48.714;9.386;2023-07-08T04:05:21;15.75;;;7.30;;
44850;SDS011;30583;48.714;9.386;2023-07-08T04:07:47;11.02;;;6.45;;
44850;SDS011;30583;48.714;9.386;2023-07-08T04:10:13;13.18;;;6.50;;
44850;SDS011;30583;48.714;9.386;2023-07-08T04:12:39;9.95;;;6.63;;
44850;SDS011;30583;48.714;9.386;2023-07-08T04:15:06;10.07;;;7.28;;
44850;SDS011;30583;48.714;9.386;2023-07-08T04:17:40;11.68;;;7.03;;
44850;SDS011;30583;48.714;9.386;2023-07-08T04:20:10;12.82;;;6.65;;
44850;SDS011;30583;48.714;9.386;2023-07-08T04:22:39;10.50;;;6.53;;
44850;SDS011;30583;48.714;9.386;2023-07-08T04:25:04;12.15;;;7.03;;
44850;SDS011;30583;48.714;9.386;2023-07-08T04:27:31;10.82;;;6.53;;
44850;SDS011;30583;48.714;9.386;2023-07-08T04:29:57;11.07;;;6.72;;
44850;SDS011;30583;48.714;9.386;2023-07-08T04:32:23;11.10;;;6.15;;
44850;SDS011;30583;48.714;9.386;2023-07-08T04:34:50;10.27;;;6.35;;
44850;SDS011;30583;48.714;9.386;2023-07-08T04:37:18;10.25;;;6.60;;
44850;SDS011;30583;48.714;9.386;2023-07-08T04:39:44;9.90;;;6.05;;
44850;SDS011;30583;48.714;9.386;2023-07-08T04:42:11;10.02;;;6.68;;
44850;SDS011;30583;48.714;9.386;2023-07-08T04:44:40;9.90;;;6.80;;
44850;SDS011;30583;48.714;9.386;2023-07-08T04:47:06;10.02;;;6.60;;
44850;SDS011;30583;48.714;9.386;2023-07-08T04:49:34;12.15;;;6.30;;
44850;SDS011;30583;48.714;9.386;2023-07-08T04:52:00;10.85;;;7.53;;
44850;SDS011;30583;48.714;9.386;2023-07-08T04:54:27;12.35;;;6.88;;
44850;SDS011;30583;48.714;9.386;2023-07-08T04:56:53;11.32;;;6.60;;
44850;SDS011;30583;48.714;9.386;2023-07-08T04:59:20;10.55;;;5.75;;
44850;SDS011;30583;48.714;9.386;2023-07-08T05:01:47;9.40;;;5.95;;
44850;SDS011;30583;48.714;9.386;2023-07-08T05:04:14;11.07;;;6.28;;
44850;SDS011;30583;48.714;9.386;2023-07-08T05:06:41;9.23;;;5.82;;
44850;SDS011;30583;48.714;9.386;2023-07-08T05:09:07;9.80;;;6.13;;
44850;SDS011;30583;48.714;9.386;2023-07-08T05:11:34;10.63;;;6.90;;
44850;SDS011;30583;48.714;9.386;2023-07-08T05:14:00;8.27;;;5.85;;
44850;SDS011;30583;48.714;9.386;2023-07-08T05:16:26;9.27;;;6.18;;
44850;SDS011;30583;48.714;9.386;2023-07-08T05:18:52;11.00;;;6.53;;
44850;SDS011;30583;48.714;9.386;2023-07-08T05:21:18;10.43;;;5.93;;
44850;SDS011;30583;48.714;9.386;2023-07-08T05:23:45;13.50;;;5.82;;
44850;SDS011;30583;48.714;9.386;2023-07-08T05:26:14;10.77;;;6.43;;
44850;SDS011;30583;48.714;9.386;2023-07-08T05:28:40;9.50;;;6.20;;
44850;SDS011;30583;48.714;9.386;2023-07-08T05:31:05;11.52;;;6.65;;
44850;SDS011;30583;48.714;9.386;2023-07-08T05:33:31;10.68;;;5.97;;
44850;SDS011;30583;48.714;9.386;2023-07-08T05:35:57;9.38;;;5.40;;
44850;SDS011;30583;48.714;9.386;2023-07-08T05:38:22;9.60;;;6.22;;
44850;SDS011;30583;48.714;9.386;2023-07-08T05:40:53;9.65;;;5.70;;
44850;SDS011;30583;48.714;9.386;2023-07-08T05:43:20;11.20;;;6.10;;
44850;SDS011;30583;48.714;9.386;2023-07-08T05:45:46;11.00;;;6.63;;
44850;SDS011;30583;48.714;9.386;2023-07-08T05:48:12;9.25;;;5.60;;
44850;SDS011;30583;48.714;9.386;2023-07-08T05:50:38;9.77;;;5.90;;
44850;SDS011;30583;48.714;9.386;2023-07-08T05:53:04;11.45;;;6.07;;
44850;SDS011;30583;48.714;9.386;2023-07-08T05:55:31;10.80;;;5.75;;
44850;SDS011;30583;48.714;9.386;2023-07-08T05:57:57;12.50;;;6.40;;
44850;SDS011;30583;48.714;9.386;2023-07-08T06:00:23;9.50;;;6.38;;
44850;SDS011;30583;48.714;9.386;2023-07-08T06:02:48;9.32;;;6.40;;
44850;SDS011;30583;48.714;9.386;2023-07-08T06:05:14;8.20;;;5.50;;
44850;SDS011;30583;48.714;9.386;2023-07-08T06:07:40;10.25;;;5.93;;
44850;SDS011;30583;48.714;9.386;2023-07-08T06:10:05;12.48;;;6.05;;
44850;SDS011;30583;48.714;9.386;2023-07-08T06:12:32;8.80;;;5.90;;
44850;SDS011;30583;48.714;9.386;2023-07-08T06:14:57;9.13;;;5.78;;
44850;SDS011;30583;48.714;9.386;2023-07-08T06:17:23;9.43;;;5.78;;
44850;SDS011;30583;48.714;9.386;2023-07-08T06:19:49;13.40;;;6.30;;
44850;SDS011;30583;48.714;9.386;2023-07-08T06:22:14;10.65;;;6.32;;
44850;SDS011;30583;48.714;9.386;2023-07-08T06:24:40;9.23;;;6.13;;
44850;SDS011;30583;48.714;9.386;2023-07-08T06:27:06;9.02;;;5.93;;
44850;SDS011;30583;48.714;9.386;2023-07-08T06:29:32;12.07;;;6.03;;
44850;SDS011;30583;48.714;9.386;2023-07-08T06:31:59;12.95;;;6.78;;
44850;SDS011;30583;48.714;9.386;2023-07-08T06:34:24;10.27;;;5.93;;
44850;SDS011;30583;48.714;9.386;2023-07-08T06:36:50;13.35;;;7.47;;
44850;SDS011;30583;48.714;9.386;2023-07-08T06:39:16;12.30;;;6.80;;
44850;SDS011;30583;48.714;9.386;2023-07-08T06:41:43;10.10;;;6.22;;
44850;SDS011;30583;48.714;9.386;2023-07-08T06:44:09;12.77;;;6.70;;
44850;SDS011;30583;48.714;9.386;2023-07-08T06:46:35;11.68;;;6.88;;
44850;SDS011;30583;48.714;9.386;2023-07-08T06:49:00;13.23;;;6.93;;
44850;SDS011;30583;48.714;9.386;2023-07-08T06:51:26;10.30;;;6.40;;
44850;SDS011;30583;48.714;9.386;2023-07-08T06:53:52;12.98;;;7.05;;
44850;SDS011;30583;48.714;9.386;2023-07-08T06:56:18;9.23;;;5.78;;
44850;SDS011;30583;48.714;9.386;2023-07-08T06:58:44;7.13;;;3.85;;
44850;SDS011;30583;48.714;9.386;2023-07-08T07:01:09;8.35;;;5.05;;
44850;SDS011;30583;48.714;9.386;2023-07-08T07:03:35;10.80;;;4.22;;
44850;SDS011;30583;48.714;9.386;2023-07-08T07:06:01;9.23;;;5.20;;
44850;SDS011;30583;48.714;9.386;2023-07-08T07:08:26;12.80;;;6.60;;
44850;SDS011;30583;48.714;9.386;2023-07-08T07:10:52;10.52;;;5.75;;
44850;SDS011;30583;48.714;9.386;2023-07-08T07:13:18;12.27;;;5.78;;
44850;SDS011;30583;48.714;9.386;2023-07-08T07:15:43;12.40;;;5.85;;
44850;SDS011;30583;48.714;9.386;2023-07-08T07:18:09;9.48;;;5.93;;
44850;SDS011;30583;48.714;9.386;2023-07-08T07:20:36;9.00;;;6.10;;
44850;SDS011;30583;48.714;9.386;2023-07-08T07:23:02;11.90;;;6.57;;
44850;SDS011;30583;48.714;9.386;2023-07-08T07:25:28;12.00;;;6.57;;
44850;SDS011;30583;48.714;9.386;2023-07-08T07:27:54;12.80;;;6.75;;
44850;SDS011;30583;48.714;9.386;2023-07-08T07:30:20;12.95;;;6.60;;
44850;SDS011;30583;48.714;9.386;2023-07-08T07:32:46;11.90;;;6.38;;
44850;SDS011;30583;48.714;9.386;2023-07-08T07:35:11;9.40;;;6.40;;
44850;SDS011;30583;48.714;9.386;2023-07-08T07:37:39;12.02;;;6.20;;
44850;SDS011;30583;48.714;9.386;2023-07-08T07:40:07;13.02;;;7.18;;
44850;SDS011;30583;48.714;9.386;2023-07-08T07:42:41;10.73;;;7.22;;
44850;SDS011;30583;48.714;9.386;2023-07-08T07:45:08;10.60;;;6.53;;
44850;SDS011;30583;48.714;9.386;2023-07-08T07:47:34;10.60;;;6.18;;
44850;SDS011;30583;48.714;9.386;2023-07-08T07:50:00;13.32;;;7.38;;
44850;SDS011;30583;48.714;9.386;2023-07-08T07:52:27;21.83;;;7.65;;
44850;SDS011;30583;48.714;9.386;2023-07-08T07:54:52;25.20;;;9.48;;
44850;SDS011;30583;48.714;9.386;2023-07-08T07:57:19;12.30;;;6.93;;
44850;SDS011;30583;48.714;9.386;2023-07-08T07:59:45;11.02;;;6.35;;
44850;SDS011;30583;48.714;9.386;2023-07-08T08:02:11;11.15;;;6.95;;
44850;SDS011;30583;48.714;9.386;2023-07-08T08:04:37;15.82;;;7.32;;
44850;SDS011;30583;48.714;9.386;2023-07-08T08:07:02;19.00;;;7.13;;
44850;SDS011;30583;48.714;9.386;2023-07-08T08:09:28;11.57;;;6.15;;
44850;SDS011;30583;48.714;9.386;2023-07-08T08:11:54;9.40;;;6.40;;
44850;SDS011;30583;48.714;9.386;2023-07-08T08:14:20;10.30;;;5.85;;
44850;SDS011;30583;48.714;9.386;2023-07-08T08:16:45;11.25;;;7.25;;
44850;SDS011;30583;48.714;9.386;2023-07-08T08:19:11;16.10;;;6.95;;
44850;SDS011;30583;48.714;9.386;2023-07-08T08:21:37;15.70;;;6.63;;
44850;SDS011;30583;48.714;9.386;2023-07-08T08:24:02;11.00;;;6.60;;
44850;SDS011;30583;48.714;9.386;2023-07-08T08:26:28;20.73;;;6.88;;
44850;SDS011;30583;48.714;9.386;2023-07-08T08:28:55;12.75;;;5.97;;
44850;SDS011;30583;48.714;9.386;2023-07-08T08:31:21;10.40;;;6.03;;
44850;SDS011;30583;48.714;9.386;2023-07-08T08:33:46;14.02;;;7.18;;
44850;SDS011;30583;48.714;9.386;2023-07-08T08:36:12;13.20;;;6.60;;
44850;SDS011;30583;48.714;9.386;2023-07-08T08:38:37;15.70;;;6.47;;
44850;SDS011;30583;48.714;9.386;2023-07-08T08:41:13;10.43;;;6.03;;
44850;SDS011;30583;48.714;9.386;2023-07-08T08:43:40;15.15;;;6.85;;
44850;SDS011;30583;48.714;9.386;2023-07-08T08:46:23;12.05;;;6.18;;
44850;SDS011;30583;48.714;9.386;2023-07-08T08:51:46;9.32;;;6.10;;
44850;SDS011;30583;48.714;9.386;2023-07-08T08:54:12;13.40;;;6.65;;
44850;SDS011;30583;48.714;9.386;2023-07-08T08:56:54;13.65;;;6.15;;
44850;SDS011;30583;48.714;9.386;2023-07-08T08:59:44;13.10;;;6.43;;
44850;SDS011;30583;48.714;9.386;2023-07-08T09:04:56;10.32;;;6.30;;
44850;SDS011;30583;48.714;9.386;2023-07-08T09:07:26;13.38;;;5.85;;
44850;SDS011;30583;48.714;9.386;2023-07-08T09:10:08;10.95;;;6.35;;
44850;SDS011;30583;48.714;9.386;2023-07-08T09:12:40;10.38;;;5.70;;
44850;SDS011;30583;48.714;9.386;2023-07-08T09:15:13;9.73;;;5.82;;
44850;SDS011;30583;48.714;9.386;2023-07-08T09:17:40;9.13;;;4.95;;
44850;SDS011;30583;48.714;9.386;2023-07-08T09:27:57;11.60;;;5.32;;
44850;SDS011;30583;48.714;9.386;2023-07-08T09:30:23;10.27;;;5.38;;
44850;SDS011;30583;48.714;9.386;2023-07-08T09:32:50;8.82;;;4.82;;
44850;SDS011;30583;48.714;9.386;2023-07-08T09:35:26;21.15;;;10.18;;
44850;SDS011;30583;48.714;9.386;2023-07-08T09:38:06;10.23;;;4.95;;
44850;SDS011;30583;48.714;9.386;2023-07-08T09:40:38;13.80;;;8.30;;
44850;SDS011;30583;48.714;9.386;2023-07-08T09:43:24;10.25;;;4.68;;
44850;SDS011;30583;48.714;9.386;2023-07-08T09:45:51;10.40;;;4.28;;
44850;SDS011;30583;48.714;9.386;2023-07-08T09:48:28;8.85;;;4.28;;
44850;SDS011;30583;48.714;9.386;2023-07-08T09:50:57;9.10;;;4.35;;
44850;SDS011;30583;48.714;9.386;2023-07-08T09:53:23;9.68;;;4.60;;
44850;SDS011;30583;48.714;9.386;2023-07-08T09:55:50;6.78;;;4.35;;
44850;SDS011;30583;48.714;9.386;2023-07-08T09:58:27;8.57;;;3.83;;
44850;SDS011;30583;48.714;9.386;2023-07-08T10:01:13;11.77;;;4.15;;
44850;SDS011;30583;48.714;9.386;2023-07-08T10:03:43;7.90;;;3.40;;
44850;SDS011;30583;48.714;9.386;2023-07-08T10:06:20;9.07;;;4.00;;
44850;SDS011;30583;48.714;9.386;2023-07-08T10:08:53;8.63;;;4.00;;
44850;SDS011;30583;48.714;9.386;2023-07-08T10:11:27;9.32;;;4.07;;
44850;SDS011;30583;48.714;9.386;2023-07-08T10:14:07;7.32;;;3.97;;
44850;SDS011;30583;48.714;9.386;2023-07-08T10:16:37;7.32;;;3.97;;
44850;SDS011;30583;48.714;9.386;2023-07-08T10:19:13;6.80;;;3.53;;
44850;SDS011;30583;48.714;9.386;2023-07-08T10:21:51;8.25;;;4.00;;
44850;SDS011;30583;48.714;9.386;2023-07-08T10:30:26;7.63;;;3.67;;
44850;SDS011;30583;48.714;9.386;2023-07-08T10:41:23;6.85;;;3.63;;
44850;SDS011;30583;48.714;9.386;2023-07-08T10:43:54;10.48;;;4.75;;
44850;SDS011;30583;48.714;9.386;2023-07-08T10:46:26;10.40;;;3.67;;
44850;SDS011;30583;48.714;9.386;2023-07-08T10:54:22;7.25;;;2.97;;
44850;SDS011;30583;48.714;9.386;2023-07-08T11:04:58;5.53;;;2.10;;
44850;SDS011;30583;48.714;9.386;2023-07-08T11:07:47;5.70;;;2.60;;
44850;SDS011;30583;48.714;9.386;2023-07-08T11:10:27;5.70;;;2.72;;
44850;SDS011;30583;48.714;9.386;2023-07-08T11:13:05;5.55;;;2.60;;
44850;SDS011;30583;48.714;9.386;2023-07-08T11:15:45;5.18;;;2.30;;
44850;SDS011;30583;48.714;9.386;2023-07-08T11:21:19;4.72;;;2.25;;
44850;SDS011;30583;48.714;9.386;2023-07-08T11:23:54;4.50;;;2.20;;
44850;SDS011;30583;48.714;9.386;2023-07-08T11:28:57;4.88;;;3.03;;
44850;SDS011;30583;48.714;9.386;2023-07-08T11:31:24;5.75;;;2.38;;
44850;SDS011;30583;48.714;9.386;2023-07-08T11:33:52;6.13;;;2.00;;
44850;SDS011;30583;48.714;9.386;2023-07-08T11:36:20;4.22;;;1.98;;
44850;SDS011;30583;48.714;9.386;2023-07-08T11:38:47;3.72;;;1.80;;
44850;SDS011;30583;48.714;9.386;2023-07-08T11:41:15;3.78;;;1.95;;
44850;SDS011;30583;48.714;9.386;2023-07-08T11:43:53;4.70;;;2.03;;
44850;SDS011;30583;48.714;9.386;2023-07-08T11:46:24;6.03;;;2.00;;
44850;SDS011;30583;48.714;9.386;2023-07-08T11:48:53;4.25;;;1.70;;
44850;SDS011;30583;48.714;9.386;2023-07-08T11:54:09;3.58;;;1.90;;
44850;SDS011;30583;48.714;9.386;2023-07-08T11:59:41;5.45;;;2.22;;
44850;SDS011;30583;48.714;9.386;2023-07-08T12:02:17;5.63;;;2.25;;
44850;SDS011;30583;48.714;9.386;2023-07-08T12:05:01;4.10;;;1.77;;
44850;SDS011;30583;48.714;9.386;2023-07-08T12:07:44;3.58;;;2.10;;
44850;SDS011;30583;48.714;9.386;2023-07-08T12:10:18;4.13;;;1.92;;
44850;SDS011;30583;48.714;9.386;2023-07-08T12:12:51;3.67;;;1.95;;
44850;SDS011;30583;48.714;9.386;2023-07-08T12:17:48;3.60;;;2.00;;
44850;SDS011;30583;48.714;9.386;2023-07-08T12:20:23;5.38;;;2.10;;
44850;SDS011;30583;48.714;9.386;2023-07-08T12:22:54;5.28;;;1.70;;
44850;SDS011;30583;48.714;9.386;2023-07-08T12:25:20;5.28;;;1.90;;
44850;SDS011;30583;48.714;9.386;2023-07-08T12:27:47;5.75;;;2.00;;
44850;SDS011;30583;48.714;9.386;2023-07-08T12:30:14;3.53;;;1.52;;
44850;SDS011;30583;48.714;9.386;2023-07-08T12:32:41;4.63;;;2.30;;
44850;SDS011;30583;48.714;9.386;2023-07-08T12:35:19;3.40;;;1.73;;
44850;SDS011;30583;48.714;9.386;2023-07-08T12:37:51;3.45;;;1.70;;
44850;SDS011;30583;48.714;9.386;2023-07-08T12:40:19;5.38;;;2.00;;
44850;SDS011;30583;48.714;9.386;2023-07-08T12:42:46;4.28;;;2.00;;
44850;SDS011;30583;48.714;9.386;2023-07-08T12:45:15;5.20;;;2.15;;
44850;SDS011;30583;48.714;9.386;2023-07-08T12:47:43;4.57;;;2.00;;
44850;SDS011;30583;48.714;9.386;2023-07-08T12:50:10;3.88;;;1.92;;
44850;SDS011;30583;48.714;9.386;2023-07-08T12:52:37;7.05;;;2.00;;
44850;SDS011;30583;48.714;9.386;2023-07-08T12:55:04;5.60;;;1.80;;
44850;SDS011;30583;48.714;9.386;2023-07-08T12:57:31;3.70;;;1.88;;
44850;SDS011;30583;48.714;9.386;2023-07-08T12:59:57;4.68;;;2.15;;
44850;SDS011;30583;48.714;9.386;2023-07-08T13:02:23;6.13;;;2.28;;
44850;SDS011;30583;48.714;9.386;2023-07-08T13:04:55;5.47;;;2.10;;
44850;SDS011;30583;48.714;9.386;2023-07-08T13:10:04;7.03;;;2.25;;
44850;SDS011;30583;48.714;9.386;2023-07-08T13:12:32;4.88;;;2.20;;
44850;SDS011;30583;48.714;9.386;2023-07-08T13:15:03;5.10;;;1.92;;
44850;SDS011;30583;48.714;9.386;2023-07-08T13:17:35;5.72;;;2.42;;
44850;SDS011;30583;48.714;9.386;2023-07-08T13:20:02;5.68;;;2.58;;
44850;SDS011;30583;48.714;9.386;2023-07-08T13:22:29;5.60;;;2.00;;
44850;SDS011;30583;48.714;9.386;2023-07-08T13:25:02;6.68;;;1.98;;
44850;SDS011;30583;48.714;9.386;2023-07-08T13:27:28;4.57;;;2.13;;
44850;SDS011;30583;48.714;9.386;2023-07-08T13:30:15;8.85;;;2.28;;
44850;SDS011;30583;48.714;9.386;2023-07-08T13:32:47;6.57;;;1.90;;
44850;SDS011;30583;48.714;9.386;2023-07-08T13:35:38;6.05;;;2.00;;
44850;SDS011;30583;48.714;9.386;2023-07-08T13:38:03;6.35;;;2.42;;
44850;SDS011;30583;48.714;9.386;2023-07-08T13:40:29;5.32;;;2.10;;
44850;SDS011;30583;48.714;9.386;2023-07-08T13:42:56;4.95;;;1.88;;
44850;SDS011;30583;48.714;9.386;2023-07-08T13:45:26;7.00;;;2.35;;
44850;SDS011;30583;48.714;9.386;2023-07-08T13:47:57;6.70;;;2.40;;
44850;SDS011;30583;48.714;9.386;2023-07-08T13:50:27;6.75;;;2.75;;
44850;SDS011;30583;48.714;9.386;2023-07-08T13:53:15;4.03;;;2.20;;
44850;SDS011;30583;48.714;9.386;2023-07-08T13:55:42;4.43;;;2.28;;
44850;SDS011;30583;48.714;9.386;2023-07-08T13:58:07;3.92;;;2.42;;
44850;SDS011;30583;48.714;9.386;2023-07-08T14:00:41;5.50;;;2.60;;
44850;SDS011;30583;48.714;9.386;2023-07-08T14:03:10;4.85;;;2.20;;
44850;SDS011;30583;48.714;9.386;2023-07-08T14:05:38;6.93;;;2.45;;
44850;SDS011;30583;48.714;9.386;2023-07-08T14:08:07;4.65;;;2.47;;
44850;SDS011;30583;48.714;9.386;2023-07-08T14:10:38;7.65;;;2.55;;
44850;SDS011;30583;48.714;9.386;2023-07-08T14:13:04;4.78;;;2.45;;
44850;SDS011;30583;48.714;9.386;2023-07-08T14:15:29;7.78;;;2.15;;
44850;SDS011;30583;48.714;9.386;2023-07-08T14:17:55;4.82;;;2.10;;
44850;SDS011;30583;48.714;9.386;2023-07-08T14:20:21;5.80;;;2.25;;
44850;SDS011;30583;48.714;9.386;2023-07-08T14:22:50;5.50;;;2.20;;
44850;SDS011;30583;48.714;9.386;2023-07-08T14:25:16;6.20;;;2.45;;
44850;SDS011;30583;48.714;9.386;2023-07-08T14:27:43;6.80;;;2.90;;
44850;SDS011;30583;48.714;9.386;2023-07-08T14:30:09;8.38;;;2.50;;
44850;SDS011;30583;48.714;9.386;2023-07-08T14:32:35;4.95;;;2.20;;
44850;SDS011;30583;48.714;9.386;2023-07-08T14:37:49;6.88;;;2.60;;
44850;SDS011;30583;48.714;9.386;2023-07-08T14:42:44;5.68;;;2.45;;
44850;SDS011;30583;48.714;9.386;2023-07-08T14:45:10;5.82;;;2.63;;
44850;SDS011;30583;48.714;9.386;2023-07-08T14:47:36;4.82;;;2.20;;
44850;SDS011;30583;48.714;9.386;2023-07-08T14:50:09;4.38;;;2.00;;
44850;SDS011;30583;48.714;9.386;2023-07-08T14:52:39;8.77;;;2.70;;
44850;SDS011;30583;48.714;9.386;2023-07-08T14:55:05;4.70;;;2.13;;
44850;SDS011;30583;48.714;9.386;2023-07-08T14:57:32;4.93;;;2.33;;
44850;SDS011;30583;48.714;9.386;2023-07-08T15:00:05;4.70;;;2.13;;
44850;SDS011;30583;48.714;9.386;2023-07-08T15:02:31;6.80;;;2.40;;
44850;SDS011;30583;48.714;9.386;2023-07-08T15:05:08;5.90;;;2.42;;
44850;SDS011;30583;48.714;9.386;2023-07-08T15:07:39;8.00;;;2.47;;
44850;SDS011;30583;48.714;9.386;2023-07-08T15:10:05;5.00;;;2.05;;
44850;SDS011;30583;48.714;9.386;2023-07-08T15:12:32;4.32;;;2.47;;
44850;SDS011;30583;48.714;9.386;2023-07-08T15:14:57;4.90;;;2.20;;
44850;SDS011;30583;48.714;9.386;2023-07-08T15:17:23;7.00;;;2.53;;
44850;SDS011;30583;48.714;9.386;2023-07-08T15:19:49;4.72;;;2.30;;
44850;SDS011;30583;48.714;9.386;2023-07-08T15:22:14;9.18;;;2.55;;
44850;SDS011;30583;48.714;9.386;2023-07-08T15:24:40;6.72;;;2.45;;
44850;SDS011;30583;48.714;9.386;2023-07-08T15:27:05;4.15;;;2.35;;
44850;SDS011;30583;48.714;9.386;2023-07-08T15:29:34;9.27;;;2.08;;
44850;SDS011;30583;48.714;9.386;2023-07-08T15:31:59;5.28;;;2.30;;
44850;SDS011;30583;48.714;9.386;2023-07-08T15:34:25;6.10;;;2.25;;
44850;SDS011;30583;48.714;9.386;2023-07-08T15:36:50;5.38;;;2.40;;
44850;SDS011;30583;48.714;9.386;2023-07-08T15:39:16;6.78;;;2.20;;
44850;SDS011;30583;48.714;9.386;2023-07-08T15:41:42;8.57;;;2.50;;
44850;SDS011;30583;48.714;9.386;2023-07-08T15:44:08;6.22;;;2.40;;
44850;SDS011;30583;48.714;9.386;2023-07-08T15:46:36;3.50;;;2.15;;
44850;SDS011;30583;48.714;9.386;2023-07-08T15:49:16;6.50;;;2.20;;
44850;SDS011;30583;48.714;9.386;2023-07-08T15:51:47;5.93;;;1.95;;